Aérodrome :
LOGIN :

S'inscrire | Disclaimer

   EN    FR    IT 

 










Légende :    VFR   VFR Marginal   IFR   IFR Intensif   IFR Très Intensif
Visi : 
Plafond : 
>= 8 km
>= 3000ft
5 à 8 km
1000 à 3000 ft
1500m à 5 km
500 à 1000 ft
800 à 1500m
200 à 500 ft
< 800m
< 200 ft
Symboles :   Orages  Brouillard  Fortes neiges  Fortes précipitations  Vent > 20 kt
SIGMETs :   Divers  Orages  Givrage  Turbulence  Onde Orograph.  Cendres Volcan.






- Altitude de l'aérodrome : 20 ft
- Code IATA : DLM


LTBS - Dalaman

DERNIER METAR :
  • 290720Z 20007KT 140V250 9999 FEW030 21/11 Q1016 NOSIG RMK RWY19 34008KT 270V060

METARs EXPIRÉS :
  • 290650Z 36006KT 260V050 9999 FEW030 21/09 Q1016 BECMG TL0800 24012KT
  • 290620Z 01005KT 330V060 9999 FEW030 21/10 Q1016 BECMG TL0800 24012KT
  • 290550Z 01006KT 340V040 9999 FEW030 19/10 Q1016 BECMG 24012KT
  • 290520Z 01005KT CAVOK 19/10 Q1016 NOSIG RMK RWY19 33006KT 300V360
  • 290450Z 01007KT CAVOK 18/11 Q1016 NOSIG RMK RWY19 35006KT 320V020

TAF TAF LTBS
Valide du 29 à 06h jusqu'au 30 à 06h UTC


290440Z 2906/3006 35009KT CAVOK
BECMG 2906/2908 24012KT SCT030
BECMG 2916/2918 VRB02KT CAVOK



MET'MAP, la Météo Aéronautique d'un coup d'oeil ! - Copyright ORBIFLY Décembre 2007 - Disclaimer

ORBIFLY MET'MAP TEAM :

Programmation & Développement : Alexandra Zaïnal
Sur une idée originale de : Baudouin d'Aumeries
Assistance à la programmation : Marc-Olivier Méhu
Soutien technique & logistique : Manuel Goepfert

Contact : metmap@orbifly.com




SOURCES & CREDITS :

   NOAA